Time;durP1;ratioP1;P1;durP2;ratioP2;P2;SDS_P1;SDS_P2;PMS_P1;PMS_P2;Temp;Humidity;BMP_temperature;BMP_pressure;BME280_temperature;BME280_humidity;BME280_pressure;Samples;Min_cycle;Max_cycle;Signal;HPM_P1;HPM_P2
2024/01/31 00:02:05;;;;;;;69.03;44.17;;;;;;;-144.47;100.00;61586.06;4990326;28;20034;-76
2024/01/31 00:04:31;;;;;;;70.05;42.90;;;;;;;-144.47;100.00;61586.06;4990867;28;20501;-75
2024/01/31 00:06:57;;;;;;;70.00;43.05;;;;;;;-144.47;100.00;61586.06;4989988;28;20447;-75
2024/01/31 00:09:22;;;;;;;69.63;38.53;;;;;;;-144.47;100.00;61586.06;4990360;28;20109;-76
2024/01/31 00:11:48;;;;;;;63.15;38.80;;;;;;;-144.47;100.00;61586.06;4988824;28;20060;-74
2024/01/31 00:14:16;;;;;;;65.38;38.67;;;;;;;-144.47;100.00;61586.06;4986092;28;20034;-74
2024/01/31 00:16:43;;;;;;;66.20;40.15;;;;;;;-144.47;100.00;61586.06;4981342;28;20046;-76
2024/01/31 00:19:08;;;;;;;63.90;38.90;;;;;;;-144.47;100.00;61586.06;4993963;28;20474;-75
2024/01/31 00:21:33;;;;;;;64.93;39.20;;;;;;;-144.47;100.00;61586.06;4994108;28;20034;-76
2024/01/31 00:23:59;;;;;;;60.17;37.92;;;;;;;-144.47;100.00;61586.06;4993229;28;20536;-76
2024/01/31 00:26:24;;;;;;;57.45;36.65;;;;;;;-144.47;100.00;61586.06;4985929;28;20459;-75
2024/01/31 00:28:50;;;;;;;54.80;35.88;;;;;;;-144.47;100.00;61586.06;4992951;28;20121;-73
2024/01/31 00:31:15;;;;;;;56.42;36.13;;;;;;;-144.47;100.00;61586.06;4993221;28;20518;-75
2024/01/31 00:33:41;;;;;;;55.42;35.38;;;;;;;-144.47;100.00;61586.06;4993127;28;20105;-75
2024/01/31 00:36:06;;;;;;;56.40;35.13;;;;;;;-144.47;100.00;61586.06;4993434;28;20034;-75
2024/01/31 00:38:31;;;;;;;56.95;36.22;;;;;;;-144.47;100.00;61586.06;4993078;28;20035;-75
2024/01/31 00:40:57;;;;;;;56.25;36.38;;;;;;;-144.47;100.00;61586.06;4991898;28;20468;-75
2024/01/31 00:43:22;;;;;;;62.25;36.25;;;;;;;-144.47;100.00;61586.06;4993514;28;20420;-75
2024/01/31 00:45:48;;;;;;;58.80;36.20;;;;;;;-144.47;100.00;61586.06;4985424;28;20026;-75
2024/01/31 00:48:14;;;;;;;62.70;37.75;;;;;;;-144.47;100.00;61586.06;4992747;28;20054;-75
2024/01/31 00:50:39;;;;;;;62.28;38.63;;;;;;;-144.47;100.00;61586.06;4993854;28;20064;-76
2024/01/31 00:53:05;;;;;;;61.92;38.58;;;;;;;-144.47;100.00;61586.06;4976306;28;20495;-75
2024/01/31 00:55:30;;;;;;;62.83;39.08;;;;;;;-144.47;100.00;61586.06;4994884;28;20429;-75
2024/01/31 00:57:56;;;;;;;71.68;42.03;;;;;;;-144.47;100.00;61586.06;4993912;28;20037;-76
2024/01/31 01:00:23;;;;;;;64.80;41.38;;;;;;;-144.47;100.00;61586.06;4957097;28;20166;-77
2024/01/31 01:02:52;;;;;;;65.05;40.25;;;;;;;-144.47;100.00;61586.06;4999342;28;20030;-75
2024/01/31 01:05:17;;;;;;;68.13;42.72;;;;;;;-144.47;100.00;61586.06;4998804;28;20097;-74
2024/01/31 01:07:45;;;;;;;65.93;41.72;;;;;;;-144.47;100.00;61586.06;5005932;28;20043;-74
2024/01/31 01:10:15;;;;;;;74.60;45.95;;;;;;;-144.47;100.00;61586.06;4991272;28;20034;-74
2024/01/31 01:12:44;;;;;;;74.38;46.92;;;;;;;-144.47;100.00;61586.06;5002645;28;20030;-75
2024/01/31 01:15:10;;;;;;;75.93;46.95;;;;;;;-144.47;100.00;61586.06;4996249;28;20113;-73
2024/01/31 01:17:36;;;;;;;75.47;48.38;;;;;;;-144.47;100.00;61586.06;4993619;28;20076;-74
2024/01/31 01:20:01;;;;;;;74.38;47.58;;;;;;;-144.47;100.00;61586.06;4992362;28;20035;-74
2024/01/31 01:22:27;;;;;;;75.00;44.33;;;;;;;-144.47;100.00;61586.06;4993769;28;20100;-76
2024/01/31 01:24:52;;;;;;;66.95;42.85;;;;;;;-144.47;100.00;61586.06;4988184;28;20387;-76
2024/01/31 01:27:18;;;;;;;69.25;42.08;;;;;;;-144.47;100.00;61586.06;4992212;28;20042;-75
2024/01/31 01:29:44;;;;;;;65.63;40.88;;;;;;;-144.47;100.00;61586.06;4992126;28;20038;-74
2024/01/31 01:32:09;;;;;;;65.25;41.92;;;;;;;-144.47;100.00;61586.06;4992291;28;20038;-75
2024/01/31 01:34:35;;;;;;;70.05;43.40;;;;;;;-144.47;100.00;61586.06;4992263;28;20348;-73
2024/01/31 01:37:00;;;;;;;66.97;42.03;;;;;;;-144.47;100.00;61586.06;4992144;28;20057;-73
2024/01/31 01:39:26;;;;;;;67.22;43.15;;;;;;;-144.47;100.00;61586.06;4992420;28;20421;-73
2024/01/31 01:41:51;;;;;;;70.55;42.97;;;;;;;-144.47;100.00;61586.06;4990634;28;20026;-73
2024/01/31 01:44:17;;;;;;;66.03;40.65;;;;;;;-144.47;100.00;61586.06;4988929;28;20030;-74
2024/01/31 01:46:43;;;;;;;67.10;41.63;;;;;;;-144.47;100.00;61586.06;4991985;28;20026;-73
2024/01/31 01:49:11;;;;;;;64.50;40.05;;;;;;;-144.47;100.00;61586.06;4991637;28;20118;-74
2024/01/31 01:51:37;;;;;;;68.93;41.60;;;;;;;-144.47;100.00;61586.06;4990883;28;20049;-74
2024/01/31 01:54:03;;;;;;;69.13;42.15;;;;;;;-144.47;100.00;61586.06;4991655;28;20046;-76
2024/01/31 01:56:30;;;;;;;63.33;41.03;;;;;;;-144.47;100.00;61586.06;4991955;28;20034;-74
2024/01/31 01:58:56;;;;;;;64.22;42.10;;;;;;;-144.47;100.00;61586.06;4989086;28;20038;-73
2024/01/31 02:01:25;;;;;;;67.50;41.08;;;;;;;-144.47;100.00;61586.06;4988301;28;20041;-73
2024/01/31 02:03:55;;;;;;;66.95;41.22;;;;;;;-144.47;100.00;61586.06;4986287;28;20038;-74
2024/01/31 02:06:23;;;;;;;67.50;40.65;;;;;;;-144.47;100.00;61586.06;4986620;28;20468;-74
2024/01/31 02:08:49;;;;;;;65.88;39.85;;;;;;;-144.47;100.00;61586.06;4991236;28;20046;-75
2024/01/31 02:11:14;;;;;;;60.78;37.33;;;;;;;-144.47;100.00;61586.06;4990938;28;20041;-75
2024/01/31 02:13:40;;;;;;;60.38;37.53;;;;;;;-144.47;100.00;61586.06;4991796;28;20038;-76
2024/01/31 02:16:05;;;;;;;61.10;38.85;;;;;;;-144.47;100.00;61586.06;4992220;28;20034;-76
2024/01/31 02:18:31;;;;;;;60.55;37.92;;;;;;;-144.47;100.00;61586.06;4988036;28;20097;-75
2024/01/31 02:20:56;;;;;;;60.60;38.55;;;;;;;-144.47;100.00;61586.06;4987717;28;20118;-75
2024/01/31 02:23:22;;;;;;;64.85;39.65;;;;;;;-144.47;100.00;61586.06;4991762;28;20038;-75
2024/01/31 02:25:47;;;;;;;61.30;36.47;;;;;;;-144.47;100.00;61586.06;4991841;28;20117;-75
2024/01/31 02:28:13;;;;;;;62.90;38.58;;;;;;;-144.47;100.00;61586.06;4971891;28;20038;-75
2024/01/31 02:30:38;;;;;;;64.15;38.92;;;;;;;-144.47;100.00;61586.06;4992210;28;20445;-75
2024/01/31 02:33:06;;;;;;;60.88;38.00;;;;;;;-144.47;100.00;61586.06;4991676;28;20042;-74
2024/01/31 02:35:33;;;;;;;59.25;39.28;;;;;;;-144.47;100.00;61586.06;4991526;28;20027;-75
2024/01/31 02:37:59;;;;;;;63.05;39.95;;;;;;;-144.47;100.00;61586.06;4991318;28;20108;-74
2024/01/31 02:40:25;;;;;;;60.65;38.28;;;;;;;-144.47;100.00;61586.06;4989783;28;20049;-76
2024/01/31 02:42:51;;;;;;;60.15;38.35;;;;;;;-144.47;100.00;61586.06;4990246;28;20026;-74
2024/01/31 02:45:16;;;;;;;65.38;38.78;;;;;;;-144.47;100.00;61586.06;4992197;28;20026;-74
2024/01/31 02:47:42;;;;;;;60.20;38.70;;;;;;;-144.47;100.00;61586.06;4990585;28;20034;-75
2024/01/31 02:50:08;;;;;;;62.60;39.10;;;;;;;-144.47;100.00;61586.06;4990976;28;20026;-76
2024/01/31 02:52:33;;;;;;;65.25;39.95;;;;;;;-144.47;100.00;61586.06;4990569;28;20033;-75
2024/01/31 02:54:58;;;;;;;66.53;39.28;;;;;;;-144.47;100.00;61586.06;4990238;28;20117;-75
2024/01/31 02:57:24;;;;;;;68.72;42.75;;;;;;;-144.47;100.00;61586.06;4990995;28;20142;-75
2024/01/31 02:59:50;;;;;;;64.47;42.67;;;;;;;-144.47;100.00;61586.06;4986463;28;20439;-76
2024/01/31 03:02:17;;;;;;;68.85;42.30;;;;;;;-144.47;100.00;61586.06;4971707;28;20117;-75
2024/01/31 03:04:43;;;;;;;68.38;41.13;;;;;;;-144.47;100.00;61586.06;4985538;28;20122;-75
2024/01/31 03:07:08;;;;;;;65.97;42.45;;;;;;;-144.47;100.00;61586.06;4989948;28;20121;-75
2024/01/31 03:09:34;;;;;;;70.22;45.08;;;;;;;-144.47;100.00;61586.06;4990644;28;20045;-74
2024/01/31 03:11:59;;;;;;;73.03;44.83;;;;;;;-144.47;100.00;61586.06;4993383;28;20573;-75
2024/01/31 03:14:24;;;;;;;69.45;44.13;;;;;;;-144.47;100.00;61586.06;4973558;28;20101;-74
2024/01/31 03:16:50;;;;;;;74.85;46.78;;;;;;;-144.47;100.00;61586.06;4990421;28;20121;-75
2024/01/31 03:19:15;;;;;;;74.13;46.25;;;;;;;-144.47;100.00;61586.06;4986944;28;20041;-75
2024/01/31 03:21:41;;;;;;;70.57;44.83;;;;;;;-144.47;100.00;61586.06;4989888;28;20022;-75
2024/01/31 03:24:07;;;;;;;72.03;46.70;;;;;;;-144.47;100.00;61586.06;4990648;28;20493;-73
2024/01/31 03:26:32;;;;;;;70.32;45.78;;;;;;;-144.47;100.00;61586.06;4987359;28;20098;-74
2024/01/31 03:29:01;;;;;;;72.85;45.60;;;;;;;-144.47;100.00;61586.06;4990389;28;20046;-75
2024/01/31 03:31:27;;;;;;;69.95;45.97;;;;;;;-144.47;100.00;61586.06;4990556;28;20030;-73
2024/01/31 03:33:52;;;;;;;69.00;44.72;;;;;;;-144.47;100.00;61586.06;4985407;28;20168;-74
2024/01/31 03:36:18;;;;;;;75.60;44.50;;;;;;;-144.47;100.00;61586.06;4989766;28;20035;-74
2024/01/31 03:38:43;;;;;;;72.28;45.13;;;;;;;-144.47;100.00;61586.06;4986783;28;20060;-74
2024/01/31 03:41:09;;;;;;;71.05;44.63;;;;;;;-144.47;100.00;61586.06;4988692;28;20073;-74
2024/01/31 03:43:34;;;;;;;70.40;43.25;;;;;;;-144.47;100.00;61586.06;4990744;28;20034;-75
2024/01/31 03:46:04;;;;;;;69.70;42.05;;;;;;;-144.47;100.00;61586.06;4983354;28;20046;-76
2024/01/31 03:48:30;;;;;;;66.40;40.70;;;;;;;-144.47;100.00;61586.06;4988992;28;20034;-76
2024/01/31 03:50:58;;;;;;;65.63;40.78;;;;;;;-144.47;100.00;61586.06;4990446;28;20034;-74
2024/01/31 03:53:23;;;;;;;64.65;40.08;;;;;;;-144.47;100.00;61586.06;4994068;28;20113;-75
2024/01/31 03:55:49;;;;;;;66.53;41.33;;;;;;;-144.47;100.00;61586.06;4991051;28;20041;-75
2024/01/31 03:58:14;;;;;;;64.53;40.58;;;;;;;-144.47;100.00;61586.06;4994250;28;20034;-74
2024/01/31 04:00:40;;;;;;;68.13;40.78;;;;;;;-144.47;100.00;61586.06;4993910;28;20045;-74
2024/01/31 04:03:05;;;;;;;62.15;39.65;;;;;;;-144.47;100.00;61586.06;4994280;28;20109;-73
2024/01/31 04:05:31;;;;;;;63.60;41.42;;;;;;;-144.47;100.00;61586.06;4994334;28;20085;-74
2024/01/31 04:07:57;;;;;;;67.18;39.42;;;;;;;-144.47;100.00;61586.06;4992971;28;20181;-74
2024/01/31 04:10:23;;;;;;;61.72;38.60;;;;;;;-144.47;100.00;61586.06;4993288;28;20022;-74
2024/01/31 04:12:48;;;;;;;66.40;41.15;;;;;;;-144.47;100.00;61586.06;4992398;28;20506;-75
2024/01/31 04:15:14;;;;;;;68.10;41.00;;;;;;;-144.47;100.00;61586.06;4990085;28;20026;-73
2024/01/31 04:17:39;;;;;;;63.08;39.97;;;;;;;-144.47;100.00;61586.06;4993830;28;20038;-75
2024/01/31 04:20:06;;;;;;;64.45;39.83;;;;;;;-144.47;100.00;61586.06;4993300;28;20041;-75
2024/01/31 04:22:32;;;;;;;61.55;39.97;;;;;;;-144.47;100.00;61586.06;4993982;28;20033;-75
2024/01/31 04:24:57;;;;;;;60.13;39.38;;;;;;;-144.47;100.00;61586.06;4993244;28;20022;-76
2024/01/31 04:27:23;;;;;;;68.88;39.42;;;;;;;-144.47;100.00;61586.06;4977457;28;20110;-77
2024/01/31 04:29:49;;;;;;;64.78;39.88;;;;;;;-144.47;100.00;61586.06;4993219;28;20031;-75
2024/01/31 04:32:14;;;;;;;64.82;40.53;;;;;;;-144.47;100.00;61586.06;4994229;28;20515;-74
2024/01/31 04:34:40;;;;;;;62.22;39.28;;;;;;;-144.47;100.00;61586.06;4988305;28;20042;-74
2024/01/31 04:37:05;;;;;;;65.60;39.33;;;;;;;-144.47;100.00;61586.06;4992902;28;20052;-75
2024/01/31 04:39:31;;;;;;;60.95;40.00;;;;;;;-144.47;100.00;61586.06;4992904;28;20040;-76
2024/01/31 04:41:56;;;;;;;62.55;41.13;;;;;;;-144.47;100.00;61586.06;4991252;28;20084;-74
2024/01/31 04:44:22;;;;;;;66.05;41.58;;;;;;;-144.47;100.00;61586.06;4993352;28;20034;-75
2024/01/31 04:46:47;;;;;;;70.00;41.22;;;;;;;-144.47;100.00;61586.06;4993090;28;20530;-76
2024/01/31 04:49:13;;;;;;;66.90;42.20;;;;;;;-144.47;100.00;61586.06;4992958;28;20046;-75
2024/01/31 04:51:42;;;;;;;72.18;43.22;;;;;;;-144.47;100.00;61586.06;4993072;28;20133;-76
2024/01/31 04:54:08;;;;;;;67.68;43.83;;;;;;;-144.47;100.00;61586.06;4991995;28;20088;-76
2024/01/31 04:56:35;;;;;;;69.90;44.00;;;;;;;-144.47;100.00;61586.06;4992104;28;20031;-75
2024/01/31 04:59:00;;;;;;;71.10;43.72;;;;;;;-144.47;100.00;61586.06;4992002;28;20065;-75
2024/01/31 05:01:26;;;;;;;66.60;43.10;;;;;;;-144.47;100.00;61586.06;4992652;28;20098;-74
2024/01/31 05:03:52;;;;;;;71.13;42.40;;;;;;;-144.47;100.00;61586.06;4991439;28;20053;-75
2024/01/31 05:06:17;;;;;;;70.07;42.78;;;;;;;-144.47;100.00;61586.06;4975149;28;20022;-75
2024/01/31 05:08:42;;;;;;;73.47;42.65;;;;;;;-144.47;100.00;61586.06;4992601;28;20443;-74
2024/01/31 05:11:08;;;;;;;67.60;41.83;;;;;;;-144.47;100.00;61586.06;4970836;28;20034;-75
2024/01/31 05:13:33;;;;;;;68.32;44.15;;;;;;;-144.47;100.00;61586.06;4988270;28;20027;-73
2024/01/31 05:15:58;;;;;;;66.65;43.55;;;;;;;-144.47;100.00;61586.06;4992652;28;20030;-74
2024/01/31 05:18:24;;;;;;;71.80;45.50;;;;;;;-144.47;100.00;61586.06;4992584;28;20553;-75
2024/01/31 05:20:49;;;;;;;67.35;44.75;;;;;;;-144.47;100.00;61586.06;4991597;28;20030;-74
2024/01/31 05:23:15;;;;;;;67.50;43.25;;;;;;;-144.47;100.00;61586.06;4992787;28;20076;-74
2024/01/31 05:25:40;;;;;;;66.50;41.45;;;;;;;-144.47;100.00;61586.06;4991005;28;20060;-74
2024/01/31 05:28:06;;;;;;;68.13;42.85;;;;;;;-144.47;100.00;61586.06;4991228;28;20048;-74
2024/01/31 05:30:31;;;;;;;67.32;43.22;;;;;;;-144.47;100.00;61586.06;4989498;28;20041;-74
2024/01/31 05:32:56;;;;;;;66.35;43.10;;;;;;;-144.47;100.00;61586.06;4989851;28;20033;-74
2024/01/31 05:35:22;;;;;;;69.22;43.72;;;;;;;-144.47;100.00;61586.06;4991541;28;20480;-73
2024/01/31 05:37:48;;;;;;;68.55;41.33;;;;;;;-144.47;100.00;61586.06;4991479;28;20037;-72
2024/01/31 05:40:16;;;;;;;64.97;40.53;;;;;;;-144.47;100.00;61586.06;4992310;28;20110;-73
2024/01/31 05:42:42;;;;;;;67.68;42.60;;;;;;;-144.47;100.00;61586.06;4984487;28;20489;-73
2024/01/31 05:45:08;;;;;;;65.45;42.78;;;;;;;-144.47;100.00;61586.06;4975166;28;20027;-75
2024/01/31 05:47:34;;;;;;;64.32;41.70;;;;;;;-144.47;100.00;61586.06;4992020;28;20398;-75
2024/01/31 05:49:59;;;;;;;66.47;41.38;;;;;;;-144.47;100.00;61586.06;4991853;28;20042;-76
2024/01/31 05:52:25;;;;;;;64.90;41.75;;;;;;;-144.47;100.00;61586.06;4991975;28;20027;-75
2024/01/31 05:54:50;;;;;;;64.68;42.22;;;;;;;-144.47;100.00;61586.06;4991824;28;20447;-74
2024/01/31 05:57:15;;;;;;;67.90;42.50;;;;;;;-144.47;100.00;61586.06;4992125;28;20125;-75
2024/01/31 05:59:41;;;;;;;68.60;43.42;;;;;;;-144.47;100.00;61586.06;4987855;28;20478;-73
2024/01/31 06:02:07;;;;;;;69.00;42.80;;;;;;;-144.47;100.00;61586.06;4992204;28;20041;-73
2024/01/31 06:04:32;;;;;;;67.60;43.20;;;;;;;-144.47;100.00;61586.06;4991722;28;20030;-76
2024/01/31 06:06:58;;;;;;;72.22;44.92;;;;;;;-144.47;100.00;61586.06;4991406;28;20529;-76
2024/01/31 06:09:23;;;;;;;71.85;46.95;;;;;;;-144.47;100.00;61586.06;4987980;28;20502;-76
2024/01/31 06:11:49;;;;;;;70.95;43.22;;;;;;;-144.47;100.00;61586.06;4968959;28;20035;-74
2024/01/31 06:14:15;;;;;;;72.15;44.72;;;;;;;-144.47;100.00;61586.06;4985305;28;20037;-75
2024/01/31 06:16:40;;;;;;;72.93;45.88;;;;;;;-144.47;100.00;61586.06;4985173;28;20081;-73
2024/01/31 06:19:08;;;;;;;73.50;45.88;;;;;;;-144.47;100.00;61586.06;4986862;28;20125;-74
2024/01/31 06:21:35;;;;;;;72.38;47.70;;;;;;;-144.47;100.00;61586.06;4985730;28;20113;-73
2024/01/31 06:24:00;;;;;;;72.20;46.90;;;;;;;-144.47;100.00;61586.06;4991162;28;20173;-73
2024/01/31 06:26:28;;;;;;;74.38;47.90;;;;;;;-144.47;100.00;61586.06;4986386;28;20451;-74
2024/01/31 06:28:54;;;;;;;74.72;48.35;;;;;;;-144.47;100.00;61586.06;4985879;28;20046;-74
2024/01/31 06:31:27;;;;;;;74.55;47.72;;;;;;;-144.47;100.00;61586.06;4989666;28;20045;-74
2024/01/31 06:33:54;;;;;;;72.72;46.60;;;;;;;-144.47;100.00;61586.06;4988563;28;20041;-77
2024/01/31 06:36:20;;;;;;;77.78;47.67;;;;;;;-144.47;100.00;61586.06;4990804;28;20038;-73
2024/01/31 06:38:46;;;;;;;76.15;48.67;;;;;;;-144.47;100.00;61586.06;4985655;28;20379;-73
2024/01/31 06:41:14;;;;;;;75.85;47.72;;;;;;;-144.47;100.00;61586.06;4984767;28;20125;-74
2024/01/31 06:43:39;;;;;;;78.55;48.33;;;;;;;-144.47;100.00;61586.06;4985884;28;20042;-75
2024/01/31 06:46:05;;;;;;;72.10;46.92;;;;;;;-144.47;100.00;61586.06;4987707;28;20403;-74
2024/01/31 06:48:31;;;;;;;76.05;46.97;;;;;;;-144.47;100.00;61586.06;4986505;28;20464;-74
2024/01/31 06:50:56;;;;;;;72.55;45.70;;;;;;;-144.47;100.00;61586.06;4987109;28;20038;-74
2024/01/31 06:53:22;;;;;;;69.28;44.90;;;;;;;-144.47;100.00;61586.06;4990081;28;20038;-73
2024/01/31 06:55:47;;;;;;;70.40;45.92;;;;;;;-144.47;100.00;61586.06;4988419;28;20442;-74
2024/01/31 06:58:13;;;;;;;75.40;44.55;;;;;;;-144.47;100.00;61586.06;4987808;28;20117;-75
2024/01/31 07:00:38;;;;;;;72.80;41.33;;;;;;;-144.47;100.00;61586.06;4986827;28;20026;-76
2024/01/31 07:03:04;;;;;;;67.57;42.20;;;;;;;-144.47;100.00;61586.06;4989142;28;20039;-74
2024/01/31 07:05:29;;;;;;;68.78;41.97;;;;;;;-144.47;100.00;61586.06;4986626;28;20034;-72
2024/01/31 07:07:55;;;;;;;67.40;41.53;;;;;;;-144.47;100.00;61586.06;4990592;28;20069;-73
2024/01/31 07:10:20;;;;;;;64.22;42.00;;;;;;;-144.47;100.00;61586.06;4988267;28;20037;-73
2024/01/31 07:12:46;;;;;;;61.63;40.05;;;;;;;-144.47;100.00;61586.06;4983821;28;20460;-73
2024/01/31 07:15:11;;;;;;;67.90;42.15;;;;;;;-144.47;100.00;61586.06;4981364;28;20034;-72
2024/01/31 07:17:37;;;;;;;62.50;40.53;;;;;;;-144.47;100.00;61586.06;4985221;28;20054;-73
2024/01/31 07:20:03;;;;;;;61.08;39.88;;;;;;;-144.47;100.00;61586.06;4990788;28;20042;-74
2024/01/31 07:22:29;;;;;;;65.88;41.42;;;;;;;-144.47;100.00;61586.06;4987046;28;20395;-72
2024/01/31 07:24:54;;;;;;;63.53;40.08;;;;;;;-144.47;100.00;61586.06;4991024;28;20141;-74
2024/01/31 07:27:20;;;;;;;65.85;40.45;;;;;;;-144.47;100.00;61586.06;4988005;28;20486;-73
2024/01/31 07:29:46;;;;;;;67.72;41.67;;;;;;;-144.47;100.00;61586.06;4983004;28;20038;-74
2024/01/31 07:32:11;;;;;;;62.67;39.30;;;;;;;-144.47;100.00;61586.06;4986076;28;20084;-73
2024/01/31 07:34:37;;;;;;;65.07;39.45;;;;;;;-144.47;100.00;61586.06;4985182;28;20518;-74
2024/01/31 07:37:04;;;;;;;57.55;39.08;;;;;;;-144.47;100.00;61586.06;4987687;28;20483;-74
2024/01/31 07:39:30;;;;;;;68.95;40.58;;;;;;;-144.47;100.00;61586.06;4990279;28;20126;-75
2024/01/31 07:41:55;;;;;;;64.40;39.72;;;;;;;-144.47;100.00;61586.06;4984090;28;20114;-75
2024/01/31 07:44:21;;;;;;;63.22;40.53;;;;;;;-144.47;100.00;61586.06;4988701;28;20041;-73
2024/01/31 07:46:46;;;;;;;67.43;41.45;;;;;;;-144.47;100.00;61586.06;4989511;28;20487;-74
2024/01/31 07:49:12;;;;;;;67.50;41.22;;;;;;;-144.47;100.00;61586.06;4986497;28;20398;-74
2024/01/31 07:51:41;;;;;;;62.55;40.88;;;;;;;-144.47;100.00;61586.06;4968409;28;20039;-74
2024/01/31 07:54:07;;;;;;;65.75;40.25;;;;;;;-144.47;100.00;61586.06;4985949;28;20122;-74
2024/01/31 07:56:32;;;;;;;63.97;40.33;;;;;;;-144.47;100.00;61586.06;4989126;28;20478;-76
2024/01/31 07:58:57;;;;;;;64.43;41.33;;;;;;;-144.47;100.00;61586.06;4984467;28;20057;-74
2024/01/31 08:01:23;;;;;;;71.25;43.00;;;;;;;-144.47;100.00;61586.06;4980689;28;20030;-75
2024/01/31 08:03:48;;;;;;;70.60;41.08;;;;;;;-144.47;100.00;61586.06;4987485;28;20033;-75
2024/01/31 08:06:14;;;;;;;62.67;40.38;;;;;;;-144.47;100.00;61586.06;4988110;28;20187;-76
2024/01/31 08:08:42;;;;;;;68.38;41.75;;;;;;;-144.47;100.00;61586.06;4988688;28;20054;-76
2024/01/31 08:11:07;;;;;;;67.20;40.92;;;;;;;-144.47;100.00;61586.06;4989134;28;20026;-75
2024/01/31 08:13:34;;;;;;;64.53;41.95;;;;;;;-144.47;100.00;61586.06;4984533;28;20062;-76
2024/01/31 08:15:59;;;;;;;65.68;40.90;;;;;;;-144.47;100.00;61586.06;4987882;28;20287;-75
2024/01/31 08:18:25;;;;;;;72.10;42.20;;;;;;;-144.47;100.00;61586.06;4988420;28;20509;-75
2024/01/31 08:20:50;;;;;;;72.15;43.88;;;;;;;-144.47;100.00;61586.06;4987376;28;20114;-74
2024/01/31 08:23:15;;;;;;;74.28;42.30;;;;;;;-144.47;100.00;61586.06;4989350;28;20014;-75
2024/01/31 08:25:41;;;;;;;65.47;40.80;;;;;;;-144.47;100.00;61586.06;4985050;28;20500;-76
2024/01/31 08:28:06;;;;;;;65.13;40.75;;;;;;;-144.47;100.00;61586.06;4981658;28;20042;-73
2024/01/31 08:30:32;;;;;;;69.55;43.25;;;;;;;-144.47;100.00;61586.06;4986595;28;20038;-75
2024/01/31 08:32:57;;;;;;;66.57;40.50;;;;;;;-144.47;100.00;61586.06;4982695;28;20726;-74
2024/01/31 08:35:22;;;;;;;67.10;42.17;;;;;;;-144.47;100.00;61586.06;4986637;28;20512;-75
2024/01/31 08:37:48;;;;;;;69.38;43.20;;;;;;;-144.47;100.00;61586.06;4988093;28;20471;-75
2024/01/31 08:40:14;;;;;;;69.45;42.63;;;;;;;-144.47;100.00;61586.06;4985480;28;20022;-75
2024/01/31 08:42:40;;;;;;;69.78;41.65;;;;;;;-144.47;100.00;61586.06;4978651;28;20553;-75
2024/01/31 08:45:09;;;;;;;70.30;42.03;;;;;;;-144.47;100.00;61586.06;4990451;28;20113;-75
2024/01/31 08:47:35;;;;;;;66.95;42.35;;;;;;;-144.47;100.00;61586.06;4978952;28;20038;-75
2024/01/31 08:50:01;;;;;;;67.88;42.08;;;;;;;-144.47;100.00;61586.06;4964654;28;20114;-73
2024/01/31 08:52:26;;;;;;;72.10;44.08;;;;;;;-144.47;100.00;61586.06;4967772;28;20510;-74
2024/01/31 08:54:52;;;;;;;68.78;41.03;;;;;;;-144.47;100.00;61586.06;4984947;28;20379;-75
2024/01/31 08:57:17;;;;;;;69.72;41.88;;;;;;;-144.47;100.00;61586.06;4982161;28;20133;-74
2024/01/31 08:59:43;;;;;;;69.07;43.05;;;;;;;-144.47;100.00;61586.06;4983342;28;20046;-76
2024/01/31 09:02:09;;;;;;;78.72;44.25;;;;;;;-144.47;100.00;61586.06;4984937;28;20038;-76
2024/01/31 09:04:35;;;;;;;70.95;41.13;;;;;;;-144.47;100.00;61586.06;4985474;28;20065;-76
2024/01/31 09:07:00;;;;;;;70.88;43.20;;;;;;;-144.47;100.00;61586.06;4983313;28;20089;-76
2024/01/31 09:09:26;;;;;;;71.75;42.67;;;;;;;-144.47;100.00;61586.06;4986911;28;20058;-76
2024/01/31 09:11:52;;;;;;;71.80;42.55;;;;;;;-144.47;100.00;61586.06;4973461;28;20042;-76
2024/01/31 09:14:18;;;;;;;66.90;41.55;;;;;;;-144.47;100.00;61586.06;4991313;28;20026;-75
2024/01/31 09:16:43;;;;;;;72.28;43.60;;;;;;;-144.47;100.00;61586.06;4990406;28;20383;-76
2024/01/31 09:19:09;;;;;;;68.25;42.58;;;;;;;-144.47;100.00;61586.06;4988812;28;20046;-75
2024/01/31 09:21:35;;;;;;;74.30;42.65;;;;;;;-144.47;100.00;61586.06;4978361;28;20031;-73
2024/01/31 09:24:00;;;;;;;71.47;43.00;;;;;;;-144.47;100.00;61586.06;4970544;28;20791;-75
2024/01/31 09:26:26;;;;;;;68.75;41.78;;;;;;;-144.47;100.00;61586.06;4976721;28;20038;-75
2024/01/31 09:28:52;;;;;;;67.45;41.67;;;;;;;-144.47;100.00;61586.06;4983887;28;20123;-74
2024/01/31 09:31:22;;;;;;;72.90;42.67;;;;;;;-144.47;100.00;61586.06;4991821;28;20165;-74
2024/01/31 09:33:51;;;;;;;70.18;41.05;;;;;;;-144.47;100.00;61586.06;4992222;28;20475;-76
2024/01/31 09:36:16;;;;;;;68.63;42.90;;;;;;;-144.47;100.00;61586.06;4992886;28;20109;-74
2024/01/31 09:38:43;;;;;;;69.43;41.75;;;;;;;-144.47;100.00;61586.06;4987598;28;20141;-73
2024/01/31 09:41:09;;;;;;;69.60;42.28;;;;;;;-144.47;100.00;61586.06;4980336;28;20066;-75
2024/01/31 09:43:34;;;;;;;74.88;43.60;;;;;;;-144.47;100.00;61586.06;4985941;28;20030;-75
2024/01/31 09:46:04;;;;;;;71.03;43.70;;;;;;;-144.47;100.00;61586.06;4969244;28;20084;-74
2024/01/31 09:48:30;;;;;;;72.63;43.17;;;;;;;-144.47;100.00;61586.06;4982311;28;20057;-75
2024/01/31 09:50:59;;;;;;;66.70;41.63;;;;;;;-144.47;100.00;61586.06;4953721;28;20160;-75
2024/01/31 09:53:24;;;;;;;76.78;43.97;;;;;;;-144.47;100.00;61586.06;4989335;28;20037;-75
2024/01/31 09:55:55;;;;;;;70.85;42.67;;;;;;;-144.47;100.00;61586.06;4990441;28;20348;-75
2024/01/31 09:58:21;;;;;;;73.75;43.88;;;;;;;-144.47;100.00;61586.06;4989761;28;20038;-73
2024/01/31 10:00:46;;;;;;;69.10;42.83;;;;;;;-144.47;100.00;61586.06;4990448;28;20034;-75
2024/01/31 10:03:12;;;;;;;72.45;41.75;;;;;;;-144.47;100.00;61586.06;4981963;28;20053;-75
2024/01/31 10:05:39;;;;;;;70.20;42.63;;;;;;;-144.47;100.00;61586.06;4990303;28;20027;-76
2024/01/31 10:08:04;;;;;;;75.13;44.40;;;;;;;-144.47;100.00;61586.06;4989456;28;20065;-74
2024/01/31 10:10:30;;;;;;;74.00;42.75;;;;;;;-144.47;100.00;61586.06;4986834;28;20136;-73
2024/01/31 10:12:56;;;;;;;71.10;42.15;;;;;;;-144.47;100.00;61586.06;4989915;28;20040;-74
2024/01/31 10:15:21;;;;;;;67.00;41.85;;;;;;;-144.47;100.00;61586.06;4990185;28;20169;-75
2024/01/31 10:17:47;;;;;;;66.82;40.67;;;;;;;-144.47;100.00;61586.06;4988551;28;20034;-74
2024/01/31 10:20:16;;;;;;;63.13;39.10;;;;;;;-144.47;100.00;61586.06;4985509;28;20034;-73
2024/01/31 10:22:43;;;;;;;66.88;39.50;;;;;;;-144.47;100.00;61586.06;4990548;28;20101;-75
2024/01/31 10:25:10;;;;;;;60.35;36.65;;;;;;;-144.47;100.00;61586.06;4987218;28;20038;-74
2024/01/31 10:27:36;;;;;;;63.13;37.97;;;;;;;-144.47;100.00;61586.06;4986725;28;20033;-74
2024/01/31 10:30:07;;;;;;;62.25;38.08;;;;;;;-144.47;100.00;61586.06;4985265;28;20453;-74
2024/01/31 10:32:35;;;;;;;67.60;40.08;;;;;;;-144.47;100.00;61586.06;4991211;28;20034;-74
2024/01/31 10:35:02;;;;;;;66.40;39.30;;;;;;;-144.47;100.00;61586.06;4990220;28;20046;-74
2024/01/31 10:37:29;;;;;;;65.18;40.05;;;;;;;-144.47;100.00;61586.06;4986843;28;20026;-75
2024/01/31 10:39:55;;;;;;;65.65;40.15;;;;;;;-144.47;100.00;61586.06;4990392;28;20449;-76
2024/01/31 10:42:22;;;;;;;71.60;42.30;;;;;;;-144.47;100.00;61586.06;4990804;28;20109;-75
2024/01/31 10:44:48;;;;;;;71.82;42.38;;;;;;;-144.47;100.00;61586.06;4989658;28;20034;-76
2024/01/31 10:47:14;;;;;;;69.05;41.58;;;;;;;-144.47;100.00;61586.06;4994605;28;20109;-75
2024/01/31 10:49:40;;;;;;;73.13;41.03;;;;;;;-144.47;100.00;61586.06;4986423;28;20129;-75